sensor_id;sensor_type;location;lat;lon;timestamp;pressure;altitude;pressure_sealevel;temperature;humidity
15646;BME280;7922;43.622;1.476;2023-04-29T00:02:06;99793.38;;;15.20;92.80
15646;BME280;7922;43.622;1.476;2023-04-29T00:04:31;99722.94;;;14.81;92.86
15646;BME280;7922;43.622;1.476;2023-04-29T00:06:56;99712.50;;;14.78;93.22
15646;BME280;7922;43.622;1.476;2023-04-29T00:09:22;99832.97;;;15.40;93.73
15646;BME280;7922;43.622;1.476;2023-04-29T00:11:47;99786.81;;;15.11;93.25
15646;BME280;7922;43.622;1.476;2023-04-29T00:14:12;99866.56;;;15.57;93.65
15646;BME280;7922;43.622;1.476;2023-04-29T00:16:39;99915.69;;;15.83;93.54
15646;BME280;7922;43.622;1.476;2023-04-29T00:19:04;99885.19;;;15.59;93.70
15646;BME280;7922;43.622;1.476;2023-04-29T00:21:29;99889.75;;;15.57;93.39
15646;BME280;7922;43.622;1.476;2023-04-29T00:23:55;99915.03;;;15.80;93.75
15646;BME280;7922;43.622;1.476;2023-04-29T00:26:20;99854.53;;;15.37;93.48
15646;BME280;7922;43.622;1.476;2023-04-29T00:28:45;99875.34;;;15.59;93.59
15646;BME280;7922;43.622;1.476;2023-04-29T00:31:10;99895.19;;;15.70;93.53
15646;BME280;7922;43.622;1.476;2023-04-29T00:33:36;99738.09;;;14.81;93.64
15646;BME280;7922;43.622;1.476;2023-04-29T00:36:01;99883.06;;;15.64;94.05
15646;BME280;7922;43.622;1.476;2023-04-29T00:38:26;99865.66;;;15.44;93.94
15646;BME280;7922;43.622;1.476;2023-04-29T00:40:52;99757.81;;;14.92;93.85
15646;BME280;7922;43.622;1.476;2023-04-29T00:43:17;99817.06;;;15.25;94.32
15646;BME280;7922;43.622;1.476;2023-04-29T00:45:42;99799.31;;;15.11;93.96
15646;BME280;7922;43.622;1.476;2023-04-29T00:48:08;99879.44;;;15.65;94.20
15646;BME280;7922;43.622;1.476;2023-04-29T00:50:33;99893.38;;;15.70;94.19
15646;BME280;7922;43.622;1.476;2023-04-29T00:52:59;99908.50;;;15.84;94.16
15646;BME280;7922;43.622;1.476;2023-04-29T00:55:25;99892.34;;;15.73;94.01
15646;BME280;7922;43.622;1.476;2023-04-29T00:57:51;99919.00;;;15.87;94.14
15646;BME280;7922;43.622;1.476;2023-04-29T01:00:17;99786.16;;;15.08;94.05
15646;BME280;7922;43.622;1.476;2023-04-29T01:02:44;99898.22;;;15.78;94.22
15646;BME280;7922;43.622;1.476;2023-04-29T01:05:10;99780.25;;;15.03;93.97
15646;BME280;7922;43.622;1.476;2023-04-29T01:10:30;99913.19;;;15.80;94.15
15646;BME280;7922;43.622;1.476;2023-04-29T01:13:15;99820.63;;;15.25;94.19
15646;BME280;7922;43.622;1.476;2023-04-29T01:15:48;99875.03;;;15.64;94.18
15646;BME280;7922;43.622;1.476;2023-04-29T01:18:26;99954.31;;;16.05;94.61
15646;BME280;7922;43.622;1.476;2023-04-29T01:20:53;99911.56;;;15.78;94.51
15646;BME280;7922;43.622;1.476;2023-04-29T01:23:25;99785.81;;;15.00;94.33
15646;BME280;7922;43.622;1.476;2023-04-29T01:25:50;99904.06;;;15.70;94.46
15646;BME280;7922;43.622;1.476;2023-04-29T01:28:42;99875.50;;;15.44;94.82
15646;BME280;7922;43.622;1.476;2023-04-29T01:31:18;99938.81;;;15.83;95.39
15646;BME280;7922;43.622;1.476;2023-04-29T01:33:58;99800.75;;;15.02;95.25
15646;BME280;7922;43.622;1.476;2023-04-29T01:44:41;99871.50;;;15.36;95.67
15646;BME280;7922;43.622;1.476;2023-04-29T01:47:09;99929.13;;;15.82;95.89
15646;BME280;7922;43.622;1.476;2023-04-29T01:49:37;99878.53;;;15.52;95.67
15646;BME280;7922;43.622;1.476;2023-04-29T01:52:02;99774.25;;;14.99;95.11
15646;BME280;7922;43.622;1.476;2023-04-29T01:54:28;99762.38;;;14.90;94.97
15646;BME280;7922;43.622;1.476;2023-04-29T01:56:53;99810.16;;;15.22;94.91
15646;BME280;7922;43.622;1.476;2023-04-29T01:59:18;99885.47;;;15.69;95.24
15646;BME280;7922;43.622;1.476;2023-04-29T02:01:43;99891.25;;;15.75;95.31
15646;BME280;7922;43.622;1.476;2023-04-29T02:04:09;99910.34;;;15.83;95.12
15646;BME280;7922;43.622;1.476;2023-04-29T02:06:34;99876.78;;;15.65;95.35
15646;BME280;7922;43.622;1.476;2023-04-29T02:08:59;99793.28;;;15.22;94.76
15646;BME280;7922;43.622;1.476;2023-04-29T02:11:25;99886.88;;;15.74;94.57
15646;BME280;7922;43.622;1.476;2023-04-29T02:13:50;99890.75;;;15.83;94.96
15646;BME280;7922;43.622;1.476;2023-04-29T02:16:16;99846.09;;;15.58;94.56
15646;BME280;7922;43.622;1.476;2023-04-29T02:18:42;99891.53;;;15.85;94.39
15646;BME280;7922;43.622;1.476;2023-04-29T02:21:07;99770.63;;;15.14;94.58
15646;BME280;7922;43.622;1.476;2023-04-29T02:23:34;99826.78;;;15.40;94.47
15646;BME280;7922;43.622;1.476;2023-04-29T02:25:59;99956.94;;;16.19;94.70
15646;BME280;7922;43.622;1.476;2023-04-29T02:28:24;99899.00;;;15.80;94.59
15646;BME280;7922;43.622;1.476;2023-04-29T02:30:50;99891.53;;;15.85;94.32
15646;BME280;7922;43.622;1.476;2023-04-29T02:33:15;99797.34;;;15.27;94.51
15646;BME280;7922;43.622;1.476;2023-04-29T02:35:40;99933.50;;;16.10;94.43
15646;BME280;7922;43.622;1.476;2023-04-29T02:38:06;99824.56;;;15.47;94.55
15646;BME280;7922;43.622;1.476;2023-04-29T02:40:31;99947.88;;;16.22;94.90
15646;BME280;7922;43.622;1.476;2023-04-29T02:42:57;99761.00;;;15.12;94.70
15646;BME280;7922;43.622;1.476;2023-04-29T02:45:22;99905.34;;;15.92;94.83
15646;BME280;7922;43.622;1.476;2023-04-29T02:47:47;99945.13;;;16.23;94.96
15646;BME280;7922;43.622;1.476;2023-04-29T02:50:13;99752.16;;;15.11;94.77
15646;BME280;7922;43.622;1.476;2023-04-29T02:52:38;99901.50;;;15.96;94.83
15646;BME280;7922;43.622;1.476;2023-04-29T02:55:03;99822.78;;;15.47;94.49
15646;BME280;7922;43.622;1.476;2023-04-29T02:57:29;99855.03;;;15.71;94.88
15646;BME280;7922;43.622;1.476;2023-04-29T02:59:54;99950.88;;;16.30;94.89
15646;BME280;7922;43.622;1.476;2023-04-29T03:02:19;99917.41;;;15.97;94.69
15646;BME280;7922;43.622;1.476;2023-04-29T03:04:45;99940.63;;;16.24;94.45
15646;BME280;7922;43.622;1.476;2023-04-29T03:07:10;99908.69;;;16.08;94.66
15646;BME280;7922;43.622;1.476;2023-04-29T03:09:35;99864.28;;;15.80;94.62
15646;BME280;7922;43.622;1.476;2023-04-29T03:12:01;99878.31;;;15.96;94.74
15646;BME280;7922;43.622;1.476;2023-04-29T03:14:26;99923.16;;;16.18;94.94
15646;BME280;7922;43.622;1.476;2023-04-29T03:16:51;99813.94;;;15.59;94.86
15646;BME280;7922;43.622;1.476;2023-04-29T03:19:16;99889.84;;;15.97;94.84
15646;BME280;7922;43.622;1.476;2023-04-29T03:21:42;99915.66;;;16.10;95.14
15646;BME280;7922;43.622;1.476;2023-04-29T03:24:07;99905.38;;;16.04;94.85
15646;BME280;7922;43.622;1.476;2023-04-29T03:26:32;99899.81;;;16.07;95.05
15646;BME280;7922;43.622;1.476;2023-04-29T03:28:57;99909.47;;;16.10;95.15
15646;BME280;7922;43.622;1.476;2023-04-29T03:31:23;99813.47;;;15.53;95.30
15646;BME280;7922;43.622;1.476;2023-04-29T03:33:49;99881.63;;;16.00;95.26
15646;BME280;7922;43.622;1.476;2023-04-29T03:36:14;99906.78;;;16.10;95.09
15646;BME280;7922;43.622;1.476;2023-04-29T03:38:39;99780.00;;;15.34;95.04
15646;BME280;7922;43.622;1.476;2023-04-29T03:41:04;99775.94;;;15.29;95.47
15646;BME280;7922;43.622;1.476;2023-04-29T03:43:30;99895.31;;;15.95;95.36
15646;BME280;7922;43.622;1.476;2023-04-29T03:45:55;99905.28;;;16.06;95.26
15646;BME280;7922;43.622;1.476;2023-04-29T03:48:20;99898.50;;;16.00;95.38
15646;BME280;7922;43.622;1.476;2023-04-29T03:50:46;99933.50;;;16.10;95.28
15646;BME280;7922;43.622;1.476;2023-04-29T03:53:11;99907.09;;;16.05;95.58
15646;BME280;7922;43.622;1.476;2023-04-29T03:55:37;99926.81;;;16.17;95.34
15646;BME280;7922;43.622;1.476;2023-04-29T03:58:02;99884.16;;;15.88;95.41
15646;BME280;7922;43.622;1.476;2023-04-29T04:00:29;99796.66;;;15.38;95.60
15646;BME280;7922;43.622;1.476;2023-04-29T04:02:54;99919.56;;;16.05;95.80
15646;BME280;7922;43.622;1.476;2023-04-29T04:05:19;99929.13;;;16.09;96.10
15646;BME280;7922;43.622;1.476;2023-04-29T04:07:45;99733.41;;;14.99;96.07
15646;BME280;7922;43.622;1.476;2023-04-29T04:10:11;99890.28;;;15.91;96.24
15646;BME280;7922;43.622;1.476;2023-04-29T04:12:36;99904.38;;;15.93;96.38
15646;BME280;7922;43.622;1.476;2023-04-29T04:15:01;99936.53;;;16.18;97.40
15646;BME280;7922;43.622;1.476;2023-04-29T04:17:26;99968.22;;;16.37;98.14
15646;BME280;7922;43.622;1.476;2023-04-29T04:19:52;99791.28;;;15.25;98.26
15646;BME280;7922;43.622;1.476;2023-04-29T04:22:17;99969.41;;;16.33;98.85
15646;BME280;7922;43.622;1.476;2023-04-29T04:24:42;99805.81;;;15.34;99.20
15646;BME280;7922;43.622;1.476;2023-04-29T04:27:08;99908.00;;;15.92;99.32
15646;BME280;7922;43.622;1.476;2023-04-29T04:29:33;99943.84;;;16.02;99.72
15646;BME280;7922;43.622;1.476;2023-04-29T04:31:58;99909.56;;;15.81;100.00
15646;BME280;7922;43.622;1.476;2023-04-29T04:34:23;99846.31;;;15.40;100.00
15646;BME280;7922;43.622;1.476;2023-04-29T04:36:49;99942.06;;;15.88;100.00
15646;BME280;7922;43.622;1.476;2023-04-29T04:39:14;99836.25;;;15.17;100.00
15646;BME280;7922;43.622;1.476;2023-04-29T04:41:39;99944.94;;;15.85;100.00
15646;BME280;7922;43.622;1.476;2023-04-29T04:44:04;99963.16;;;15.93;100.00
15646;BME280;7922;43.622;1.476;2023-04-29T04:46:30;99983.81;;;16.03;100.00
15646;BME280;7922;43.622;1.476;2023-04-29T04:48:55;99952.09;;;15.84;100.00
15646;BME280;7922;43.622;1.476;2023-04-29T04:51:20;99963.16;;;15.93;100.00
15646;BME280;7922;43.622;1.476;2023-04-29T04:53:46;99894.53;;;15.52;100.00
15646;BME280;7922;43.622;1.476;2023-04-29T04:56:11;99942.97;;;15.74;100.00
15646;BME280;7922;43.622;1.476;2023-04-29T04:58:36;99850.44;;;15.17;100.00
15646;BME280;7922;43.622;1.476;2023-04-29T05:01:01;99963.97;;;15.66;100.00
15646;BME280;7922;43.622;1.476;2023-04-29T05:03:27;99987.56;;;15.86;100.00
15646;BME280;7922;43.622;1.476;2023-04-29T05:05:57;99944.66;;;15.61;100.00
15646;BME280;7922;43.622;1.476;2023-04-29T05:08:23;99990.66;;;15.80;100.00
15646;BME280;7922;43.622;1.476;2023-04-29T05:10:48;99946.31;;;15.49;100.00
15646;BME280;7922;43.622;1.476;2023-04-29T05:13:14;99994.47;;;15.76;100.00
15646;BME280;7922;43.622;1.476;2023-04-29T05:15:39;100000.69;;;15.77;100.00
15646;BME280;7922;43.622;1.476;2023-04-29T05:18:04;99987.91;;;15.68;100.00
15646;BME280;7922;43.622;1.476;2023-04-29T05:20:30;99917.56;;;15.26;100.00
15646;BME280;7922;43.622;1.476;2023-04-29T05:22:55;99913.94;;;15.27;100.00
15646;BME280;7922;43.622;1.476;2023-04-29T05:25:20;99981.31;;;15.59;100.00
15646;BME280;7922;43.622;1.476;2023-04-29T05:27:45;100005.25;;;15.75;100.00
15646;BME280;7922;43.622;1.476;2023-04-29T05:30:11;99903.81;;;15.17;100.00
15646;BME280;7922;43.622;1.476;2023-04-29T05:32:36;100055.78;;;16.06;100.00
15646;BME280;7922;43.622;1.476;2023-04-29T05:35:02;99899.81;;;15.10;100.00
15646;BME280;7922;43.622;1.476;2023-04-29T05:37:27;99918.72;;;15.22;100.00
15646;BME280;7922;43.622;1.476;2023-04-29T05:39:52;99896.78;;;15.16;100.00
15646;BME280;7922;43.622;1.476;2023-04-29T05:42:17;99927.75;;;15.33;100.00
15646;BME280;7922;43.622;1.476;2023-04-29T05:44:43;100000.94;;;15.72;100.00
15646;BME280;7922;43.622;1.476;2023-04-29T05:47:08;99907.56;;;15.15;100.00
15646;BME280;7922;43.622;1.476;2023-04-29T05:49:33;99924.50;;;15.28;100.00
15646;BME280;7922;43.622;1.476;2023-04-29T05:51:58;99953.28;;;15.52;100.00
15646;BME280;7922;43.622;1.476;2023-04-29T05:54:24;99838.75;;;14.91;100.00
15646;BME280;7922;43.622;1.476;2023-04-29T05:56:49;99972.84;;;15.67;100.00
15646;BME280;7922;43.622;1.476;2023-04-29T05:59:14;99986.75;;;15.72;100.00
15646;BME280;7922;43.622;1.476;2023-04-29T06:01:40;100028.88;;;16.09;100.00
15646;BME280;7922;43.622;1.476;2023-04-29T06:04:05;99986.84;;;15.84;100.00
15646;BME280;7922;43.622;1.476;2023-04-29T06:06:30;99941.44;;;15.70;100.00
15646;BME280;7922;43.622;1.476;2023-04-29T06:08:56;100029.56;;;16.26;100.00
15646;BME280;7922;43.622;1.476;2023-04-29T06:11:21;100005.16;;;16.18;100.00
15646;BME280;7922;43.622;1.476;2023-04-29T06:13:46;99917.41;;;15.70;100.00
15646;BME280;7922;43.622;1.476;2023-04-29T06:16:11;99881.53;;;15.60;100.00
15646;BME280;7922;43.622;1.476;2023-04-29T06:18:37;99990.59;;;16.09;100.00
15646;BME280;7922;43.622;1.476;2023-04-29T06:21:02;100035.13;;;16.50;100.00
15646;BME280;7922;43.622;1.476;2023-04-29T06:23:27;100003.59;;;16.28;100.00
15646;BME280;7922;43.622;1.476;2023-04-29T06:25:53;99868.50;;;15.55;100.00
15646;BME280;7922;43.622;1.476;2023-04-29T06:28:18;99988.84;;;16.08;100.00
15646;BME280;7922;43.622;1.476;2023-04-29T06:30:43;100002.06;;;15.97;100.00
15646;BME280;7922;43.622;1.476;2023-04-29T06:33:08;100060.59;;;16.28;100.00
15646;BME280;7922;43.622;1.476;2023-04-29T06:35:38;100072.41;;;16.39;100.00
15646;BME280;7922;43.622;1.476;2023-04-29T06:38:03;100047.63;;;16.22;100.00
15646;BME280;7922;43.622;1.476;2023-04-29T06:40:29;100103.88;;;16.48;100.00
15646;BME280;7922;43.622;1.476;2023-04-29T06:42:54;99914.00;;;15.39;100.00
15646;BME280;7922;43.622;1.476;2023-04-29T06:45:19;100071.28;;;16.28;100.00
15646;BME280;7922;43.622;1.476;2023-04-29T06:47:44;99973.69;;;15.67;100.00
15646;BME280;7922;43.622;1.476;2023-04-29T06:50:10;99931.91;;;15.52;100.00
15646;BME280;7922;43.622;1.476;2023-04-29T06:52:35;99910.19;;;15.44;100.00
15646;BME280;7922;43.622;1.476;2023-04-29T06:55:00;99919.81;;;15.46;100.00
15646;BME280;7922;43.622;1.476;2023-04-29T06:57:25;99964.91;;;15.65;100.00
15646;BME280;7922;43.622;1.476;2023-04-29T06:59:51;100093.84;;;16.51;100.00
15646;BME280;7922;43.622;1.476;2023-04-29T07:02:16;99923.59;;;15.56;100.00
15646;BME280;7922;43.622;1.476;2023-04-29T07:04:41;100047.78;;;16.33;100.00
15646;BME280;7922;43.622;1.476;2023-04-29T07:07:07;100035.69;;;16.28;100.00
15646;BME280;7922;43.622;1.476;2023-04-29T07:09:32;100014.41;;;16.12;100.00
15646;BME280;7922;43.622;1.476;2023-04-29T07:11:57;99969.00;;;15.71;100.00
15646;BME280;7922;43.622;1.476;2023-04-29T07:14:22;99966.03;;;15.61;100.00
15646;BME280;7922;43.622;1.476;2023-04-29T07:16:57;100059.16;;;16.23;100.00
15646;BME280;7922;43.622;1.476;2023-04-29T07:19:22;100092.25;;;16.49;100.00
15646;BME280;7922;43.622;1.476;2023-04-29T07:21:47;100092.63;;;16.70;100.00
15646;BME280;7922;43.622;1.476;2023-04-29T07:24:13;99991.41;;;16.24;100.00
15646;BME280;7922;43.622;1.476;2023-04-29T07:26:38;99917.41;;;15.70;100.00
15646;BME280;7922;43.622;1.476;2023-04-29T07:29:03;100129.53;;;16.79;100.00
15646;BME280;7922;43.622;1.476;2023-04-29T07:31:28;100003.78;;;15.98;100.00
15646;BME280;7922;43.622;1.476;2023-04-29T07:33:54;100122.81;;;16.86;100.00
15646;BME280;7922;43.622;1.476;2023-04-29T07:36:19;100115.91;;;16.96;100.00
15646;BME280;7922;43.622;1.476;2023-04-29T07:38:44;99968.50;;;16.20;100.00
15646;BME280;7922;43.622;1.476;2023-04-29T07:41:10;100057.00;;;16.69;100.00
15646;BME280;7922;43.622;1.476;2023-04-29T07:43:35;100024.81;;;16.71;100.00
15646;BME280;7922;43.622;1.476;2023-04-29T07:46:00;99967.63;;;16.46;100.00
15646;BME280;7922;43.622;1.476;2023-04-29T07:48:26;100108.13;;;17.31;100.00
15646;BME280;7922;43.622;1.476;2023-04-29T07:50:51;100062.38;;;16.96;100.00
15646;BME280;7922;43.622;1.476;2023-04-29T07:53:16;100098.88;;;17.10;100.00
15646;BME280;7922;43.622;1.476;2023-04-29T07:55:41;100142.81;;;17.20;100.00
15646;BME280;7922;43.622;1.476;2023-04-29T07:58:07;100092.88;;;16.94;100.00
15646;BME280;7922;43.622;1.476;2023-04-29T08:00:32;100011.72;;;16.26;100.00
15646;BME280;7922;43.622;1.476;2023-04-29T08:02:58;100131.56;;;16.75;100.00
15646;BME280;7922;43.622;1.476;2023-04-29T08:05:23;100031.63;;;16.08;100.00
15646;BME280;7922;43.622;1.476;2023-04-29T08:07:49;100126.66;;;16.68;100.00
15646;BME280;7922;43.622;1.476;2023-04-29T08:10:16;100106.06;;;16.55;100.00
15646;BME280;7922;43.622;1.476;2023-04-29T08:12:45;100094.56;;;16.68;100.00
15646;BME280;7922;43.622;1.476;2023-04-29T08:15:10;100112.00;;;16.88;100.00
15646;BME280;7922;43.622;1.476;2023-04-29T08:17:35;100013.53;;;16.53;100.00
15646;BME280;7922;43.622;1.476;2023-04-29T08:20:01;100016.88;;;16.56;100.00
15646;BME280;7922;43.622;1.476;2023-04-29T08:22:26;100091.31;;;17.17;100.00
15646;BME280;7922;43.622;1.476;2023-04-29T08:24:51;100094.47;;;17.36;100.00
15646;BME280;7922;43.622;1.476;2023-04-29T08:27:17;100064.66;;;17.15;100.00
15646;BME280;7922;43.622;1.476;2023-04-29T08:29:42;100074.50;;;17.15;100.00
15646;BME280;7922;43.622;1.476;2023-04-29T08:32:08;100021.22;;;16.84;100.00
15646;BME280;7922;43.622;1.476;2023-04-29T08:34:33;100088.41;;;17.20;100.00
15646;BME280;7922;43.622;1.476;2023-04-29T08:36:58;100065.13;;;16.95;100.00
15646;BME280;7922;43.622;1.476;2023-04-29T08:39:24;100104.41;;;17.34;100.00
15646;BME280;7922;43.622;1.476;2023-04-29T08:41:49;99954.66;;;16.40;100.00
15646;BME280;7922;43.622;1.476;2023-04-29T08:44:14;100079.47;;;16.94;100.00
15646;BME280;7922;43.622;1.476;2023-04-29T08:46:40;100061.16;;;16.88;100.00
15646;BME280;7922;43.622;1.476;2023-04-29T08:49:06;100131.53;;;17.55;100.00
15646;BME280;7922;43.622;1.476;2023-04-29T08:51:31;100017.81;;;16.95;100.00
15646;BME280;7922;43.622;1.476;2023-04-29T08:53:57;100100.47;;;17.40;100.00
15646;BME280;7922;43.622;1.476;2023-04-29T08:56:22;100111.38;;;17.37;100.00
15646;BME280;7922;43.622;1.476;2023-04-29T08:58:50;100062.88;;;17.54;100.00
15646;BME280;7922;43.622;1.476;2023-04-29T09:01:17;100128.66;;;17.96;99.26
15646;BME280;7922;43.622;1.476;2023-04-29T09:03:49;100082.38;;;17.82;98.24
15646;BME280;7922;43.622;1.476;2023-04-29T09:06:18;100118.22;;;18.30;97.76
15646;BME280;7922;43.622;1.476;2023-04-29T09:08:44;100135.59;;;18.74;95.99
15646;BME280;7922;43.622;1.476;2023-04-29T09:11:10;100116.47;;;18.66;95.80
15646;BME280;7922;43.622;1.476;2023-04-29T09:13:35;100099.13;;;18.59;95.35
15646;BME280;7922;43.622;1.476;2023-04-29T09:16:01;100004.72;;;18.06;94.62
15646;BME280;7922;43.622;1.476;2023-04-29T09:18:49;100087.72;;;19.27;92.89
15646;BME280;7922;43.622;1.476;2023-04-29T09:21:22;100008.81;;;19.17;89.59
15646;BME280;7922;43.622;1.476;2023-04-29T09:23:53;100028.03;;;19.35;88.26
15646;BME280;7922;43.622;1.476;2023-04-29T09:26:18;99987.13;;;19.31;87.42
15646;BME280;7922;43.622;1.476;2023-04-29T09:28:44;100080.78;;;20.05;87.75
15646;BME280;7922;43.622;1.476;2023-04-29T09:31:12;100153.59;;;20.47;85.40
15646;BME280;7922;43.622;1.476;2023-04-29T09:33:52;100145.50;;;20.69;86.48
15646;BME280;7922;43.622;1.476;2023-04-29T09:36:46;100141.25;;;20.99;85.67
15646;BME280;7922;43.622;1.476;2023-04-29T09:39:22;100130.38;;;21.00;84.32
15646;BME280;7922;43.622;1.476;2023-04-29T09:44:23;100145.78;;;19.76;88.54
15646;BME280;7922;43.622;1.476;2023-04-29T09:49:26;100106.44;;;19.05;89.78
15646;BME280;7922;43.622;1.476;2023-04-29T09:54:22;100144.13;;;18.92;92.22
15646;BME280;7922;43.622;1.476;2023-04-29T09:56:52;100153.16;;;19.26;90.50
15646;BME280;7922;43.622;1.476;2023-04-29T09:59:18;100156.38;;;19.78;88.55
15646;BME280;7922;43.622;1.476;2023-04-29T10:01:44;100052.34;;;19.44;86.41
15646;BME280;7922;43.622;1.476;2023-04-29T10:04:12;100082.53;;;19.59;84.77
15646;BME280;7922;43.622;1.476;2023-04-29T10:06:39;100142.72;;;20.26;84.29
15646;BME280;7922;43.622;1.476;2023-04-29T10:09:07;99965.72;;;19.97;82.56
15646;BME280;7922;43.622;1.476;2023-04-29T10:11:34;100013.94;;;20.32;83.86
15646;BME280;7922;43.622;1.476;2023-04-29T10:14:02;100156.72;;;21.29;82.96
15646;BME280;7922;43.622;1.476;2023-04-29T10:16:33;100074.66;;;20.68;81.60
15646;BME280;7922;43.622;1.476;2023-04-29T10:19:06;100149.22;;;20.12;83.63
15646;BME280;7922;43.622;1.476;2023-04-29T10:21:35;100126.44;;;19.71;85.65
15646;BME280;7922;43.622;1.476;2023-04-29T10:24:01;100019.22;;;19.10;86.79
15646;BME280;7922;43.622;1.476;2023-04-29T10:26:28;100151.75;;;19.80;84.56
15646;BME280;7922;43.622;1.476;2023-04-29T10:28:58;100142.22;;;19.40;86.42
15646;BME280;7922;43.622;1.476;2023-04-29T10:31:27;100059.84;;;19.17;87.40
15646;BME280;7922;43.622;1.476;2023-04-29T10:33:55;100170.97;;;20.09;85.91
15646;BME280;7922;43.622;1.476;2023-04-29T10:36:22;100099.56;;;19.71;84.48
15646;BME280;7922;43.622;1.476;2023-04-29T10:38:50;100133.28;;;20.42;84.25
15646;BME280;7922;43.622;1.476;2023-04-29T10:41:24;100128.63;;;20.67;80.85
15646;BME280;7922;43.622;1.476;2023-04-29T10:43:51;100162.44;;;21.03;82.06
15646;BME280;7922;43.622;1.476;2023-04-29T10:46:23;100165.38;;;21.00;82.65
15646;BME280;7922;43.622;1.476;2023-04-29T10:48:50;100136.81;;;20.65;83.43
15646;BME280;7922;43.622;1.476;2023-04-29T10:51:33;100132.47;;;20.31;83.24
15646;BME280;7922;43.622;1.476;2023-04-29T10:54:01;100063.38;;;19.75;84.32
15646;BME280;7922;43.622;1.476;2023-04-29T10:59:19;100133.81;;;19.45;86.43
15646;BME280;7922;43.622;1.476;2023-04-29T11:04:11;100123.47;;;19.16;87.04
15646;BME280;7922;43.622;1.476;2023-04-29T11:06:39;100023.75;;;18.74;86.43
15646;BME280;7922;43.622;1.476;2023-04-29T11:12:03;100170.81;;;19.77;85.43
15646;BME280;7922;43.622;1.476;2023-04-29T11:16:57;100118.50;;;20.26;83.38
15646;BME280;7922;43.622;1.476;2023-04-29T11:19:24;100155.44;;;20.46;82.89
15646;BME280;7922;43.622;1.476;2023-04-29T11:22:03;100021.72;;;19.36;83.95
15646;BME280;7922;43.622;1.476;2023-04-29T11:24:33;100068.91;;;19.96;82.82
15646;BME280;7922;43.622;1.476;2023-04-29T11:26:59;99991.75;;;20.19;80.06
15646;BME280;7922;43.622;1.476;2023-04-29T11:29:26;99961.19;;;20.73;78.04
15646;BME280;7922;43.622;1.476;2023-04-29T11:32:03;100059.63;;;21.92;74.49
15646;BME280;7922;43.622;1.476;2023-04-29T11:34:28;100089.53;;;22.59;72.59
15646;BME280;7922;43.622;1.476;2023-04-29T11:36:53;100113.59;;;22.82;71.07
15646;BME280;7922;43.622;1.476;2023-04-29T11:39:19;100122.41;;;21.94;74.59
15646;BME280;7922;43.622;1.476;2023-04-29T11:41:44;100116.78;;;21.85;76.99
15646;BME280;7922;43.622;1.476;2023-04-29T11:44:10;100102.28;;;20.82;79.45
15646;BME280;7922;43.622;1.476;2023-04-29T11:46:36;99985.97;;;19.69;81.58
15646;BME280;7922;43.622;1.476;2023-04-29T11:49:01;100083.47;;;20.05;82.88
15646;BME280;7922;43.622;1.476;2023-04-29T11:51:26;100106.28;;;20.22;83.25
15646;BME280;7922;43.622;1.476;2023-04-29T11:53:52;100095.53;;;19.88;83.93
15646;BME280;7922;43.622;1.476;2023-04-29T11:56:20;99993.97;;;19.35;84.04
15646;BME280;7922;43.622;1.476;2023-04-29T11:58:46;99998.88;;;19.75;82.51
15646;BME280;7922;43.622;1.476;2023-04-29T12:01:11;100010.19;;;19.11;83.73
15646;BME280;7922;43.622;1.476;2023-04-29T12:03:36;100112.66;;;19.29;86.20
15646;BME280;7922;43.622;1.476;2023-04-29T12:06:02;100086.41;;;18.97;87.36
15646;BME280;7922;43.622;1.476;2023-04-29T12:08:29;100104.56;;;19.18;87.36
15646;BME280;7922;43.622;1.476;2023-04-29T12:10:56;100095.41;;;19.32;87.33
15646;BME280;7922;43.622;1.476;2023-04-29T12:13:23;100001.34;;;18.63;86.55
15646;BME280;7922;43.622;1.476;2023-04-29T12:15:49;100064.88;;;18.62;88.97
15646;BME280;7922;43.622;1.476;2023-04-29T12:18:16;100107.84;;;18.86;89.49
15646;BME280;7922;43.622;1.476;2023-04-29T12:20:42;99953.66;;;18.07;88.51
15646;BME280;7922;43.622;1.476;2023-04-29T12:23:16;100102.84;;;18.69;90.27
15646;BME280;7922;43.622;1.476;2023-04-29T12:25:49;100075.38;;;18.41;91.15
15646;BME280;7922;43.622;1.476;2023-04-29T12:28:16;100128.63;;;18.59;91.95
15646;BME280;7922;43.622;1.476;2023-04-29T12:30:45;99768.69;;;16.49;91.29
15646;BME280;7922;43.622;1.476;2023-04-29T12:33:18;100141.66;;;18.52;92.51
15646;BME280;7922;43.622;1.476;2023-04-29T12:35:43;100072.50;;;17.95;93.45
15646;BME280;7922;43.622;1.476;2023-04-29T12:38:08;100145.47;;;18.24;94.13
15646;BME280;7922;43.622;1.476;2023-04-29T12:40:33;100103.38;;;17.88;94.72
15646;BME280;7922;43.622;1.476;2023-04-29T12:43:06;100114.50;;;18.20;94.60
15646;BME280;7922;43.622;1.476;2023-04-29T12:45:32;100027.69;;;17.71;93.33
15646;BME280;7922;43.622;1.476;2023-04-29T12:47:58;100141.47;;;18.42;93.79
15646;BME280;7922;43.622;1.476;2023-04-29T12:50:31;100117.53;;;18.39;93.76
15646;BME280;7922;43.622;1.476;2023-04-29T12:52:57;100133.44;;;18.66;93.10
15646;BME280;7922;43.622;1.476;2023-04-29T12:55:23;100134.47;;;18.52;92.92
15646;BME280;7922;43.622;1.476;2023-04-29T12:57:48;100074.13;;;18.21;92.84
15646;BME280;7922;43.622;1.476;2023-04-29T13:00:14;99982.69;;;17.64;92.76
15646;BME280;7922;43.622;1.476;2023-04-29T13:02:39;100075.69;;;18.37;91.90
15646;BME280;7922;43.622;1.476;2023-04-29T13:05:04;100042.47;;;18.02;92.91
15646;BME280;7922;43.622;1.476;2023-04-29T13:07:30;100114.00;;;18.39;93.72
15646;BME280;7922;43.622;1.476;2023-04-29T13:09:55;100072.56;;;18.06;92.96
15646;BME280;7922;43.622;1.476;2023-04-29T13:12:20;99978.31;;;17.50;93.42
15646;BME280;7922;43.622;1.476;2023-04-29T13:14:45;100079.69;;;17.94;94.30
15646;BME280;7922;43.622;1.476;2023-04-29T13:17:11;100081.25;;;17.97;95.10
15646;BME280;7922;43.622;1.476;2023-04-29T13:19:36;100075.38;;;17.79;94.87
15646;BME280;7922;43.622;1.476;2023-04-29T13:22:01;100074.94;;;17.60;95.66
15646;BME280;7922;43.622;1.476;2023-04-29T13:24:26;100102.31;;;17.77;95.78
15646;BME280;7922;43.622;1.476;2023-04-29T13:26:52;100036.28;;;17.38;95.80
15646;BME280;7922;43.622;1.476;2023-04-29T13:29:17;99951.16;;;16.92;95.70